sensor_id;sensor_type;location;lat;lon;timestamp;temperature;humidity
3846;DHT22;1938;50.812;7.738;2022-08-19T00:00:02;18.00;99.90
3846;DHT22;1938;50.812;7.738;2022-08-19T00:02:28;17.80;99.90
3846;DHT22;1938;50.812;7.738;2022-08-19T00:04:53;17.60;1.00
3846;DHT22;1938;50.812;7.738;2022-08-19T00:07:20;17.60;1.00
3846;DHT22;1938;50.812;7.738;2022-08-19T00:09:46;17.50;99.90
3846;DHT22;1938;50.812;7.738;2022-08-19T00:12:12;17.40;1.00
3846;DHT22;1938;50.812;7.738;2022-08-19T00:14:39;17.30;38.60
3846;DHT22;1938;50.812;7.738;2022-08-19T00:17:07;17.30;99.90
3846;DHT22;1938;50.812;7.738;2022-08-19T00:19:34;17.30;1.00
3846;DHT22;1938;50.812;7.738;2022-08-19T00:22:00;17.30;99.90
3846;DHT22;1938;50.812;7.738;2022-08-19T00:24:27;17.30;99.90
3846;DHT22;1938;50.812;7.738;2022-08-19T00:26:53;17.40;99.90
3846;DHT22;1938;50.812;7.738;2022-08-19T00:29:21;17.50;1.00
3846;DHT22;1938;50.812;7.738;2022-08-19T00:31:47;17.50;99.90
3846;DHT22;1938;50.812;7.738;2022-08-19T00:34:13;17.50;99.90
3846;DHT22;1938;50.812;7.738;2022-08-19T00:36:41;17.60;4.00
3846;DHT22;1938;50.812;7.738;2022-08-19T00:39:07;17.60;1.00
3846;DHT22;1938;50.812;7.738;2022-08-19T00:41:33;17.70;1.00
3846;DHT22;1938;50.812;7.738;2022-08-19T00:44:05;17.70;99.90
3846;DHT22;1938;50.812;7.738;2022-08-19T00:46:32;17.70;99.90
3846;DHT22;1938;50.812;7.738;2022-08-19T00:49:00;17.80;1.00
3846;DHT22;1938;50.812;7.738;2022-08-19T00:51:29;17.80;1.00
3846;DHT22;1938;50.812;7.738;2022-08-19T00:53:57;17.70;1.00
3846;DHT22;1938;50.812;7.738;2022-08-19T00:56:23;17.50;55.00
3846;DHT22;1938;50.812;7.738;2022-08-19T00:58:49;17.50;99.90
3846;DHT22;1938;50.812;7.738;2022-08-19T01:01:15;17.40;1.00
3846;DHT22;1938;50.812;7.738;2022-08-19T01:03:41;17.30;1.00
3846;DHT22;1938;50.812;7.738;2022-08-19T01:06:07;17.40;1.00
3846;DHT22;1938;50.812;7.738;2022-08-19T01:08:33;17.30;1.00
3846;DHT22;1938;50.812;7.738;2022-08-19T01:10:59;17.40;1.00
3846;DHT22;1938;50.812;7.738;2022-08-19T01:13:29;17.40;99.90
3846;DHT22;1938;50.812;7.738;2022-08-19T01:16:04;17.40;99.90
3846;DHT22;1938;50.812;7.738;2022-08-19T01:18:32;17.30;1.00
3846;DHT22;1938;50.812;7.738;2022-08-19T01:21:04;17.40;1.00
3846;DHT22;1938;50.812;7.738;2022-08-19T01:23:31;17.30;1.00
3846;DHT22;1938;50.812;7.738;2022-08-19T01:26:16;17.30;1.00
3846;DHT22;1938;50.812;7.738;2022-08-19T01:28:43;17.30;1.00
3846;DHT22;1938;50.812;7.738;2022-08-19T01:31:15;17.10;23.40
3846;DHT22;1938;50.812;7.738;2022-08-19T01:33:40;17.00;1.00
3846;DHT22;1938;50.812;7.738;2022-08-19T01:36:22;16.70;1.00
3846;DHT22;1938;50.812;7.738;2022-08-19T01:38:48;16.80;48.90
3846;DHT22;1938;50.812;7.738;2022-08-19T01:41:14;16.80;99.90
3846;DHT22;1938;50.812;7.738;2022-08-19T01:43:42;16.80;6.50
3846;DHT22;1938;50.812;7.738;2022-08-19T01:46:07;16.80;34.50
3846;DHT22;1938;50.812;7.738;2022-08-19T01:48:36;16.90;1.00
3846;DHT22;1938;50.812;7.738;2022-08-19T01:51:02;16.90;99.90
3846;DHT22;1938;50.812;7.738;2022-08-19T01:53:28;16.90;23.40
3846;DHT22;1938;50.812;7.738;2022-08-19T01:55:53;16.90;1.00
3846;DHT22;1938;50.812;7.738;2022-08-19T01:58:22;16.90;1.00
3846;DHT22;1938;50.812;7.738;2022-08-19T02:00:48;17.00;99.90
3846;DHT22;1938;50.812;7.738;2022-08-19T02:03:14;17.00;67.00
3846;DHT22;1938;50.812;7.738;2022-08-19T02:05:40;17.00;99.90
3846;DHT22;1938;50.812;7.738;2022-08-19T02:08:06;17.00;99.90
3846;DHT22;1938;50.812;7.738;2022-08-19T02:10:33;16.90;99.90
3846;DHT22;1938;50.812;7.738;2022-08-19T02:12:59;17.00;36.10
3846;DHT22;1938;50.812;7.738;2022-08-19T02:15:24;16.90;40.40
3846;DHT22;1938;50.812;7.738;2022-08-19T02:17:51;16.90;99.90
3846;DHT22;1938;50.812;7.738;2022-08-19T02:20:17;16.90;99.90
3846;DHT22;1938;50.812;7.738;2022-08-19T02:22:43;16.90;99.90
3846;DHT22;1938;50.812;7.738;2022-08-19T02:25:13;16.80;99.90
3846;DHT22;1938;50.812;7.738;2022-08-19T02:27:40;16.80;99.90
3846;DHT22;1938;50.812;7.738;2022-08-19T02:30:09;16.80;1.00
3846;DHT22;1938;50.812;7.738;2022-08-19T02:32:35;16.70;85.20
3846;DHT22;1938;50.812;7.738;2022-08-19T02:35:01;16.70;1.00
3846;DHT22;1938;50.812;7.738;2022-08-19T02:37:27;16.70;1.00
3846;DHT22;1938;50.812;7.738;2022-08-19T02:40:11;16.70;1.00
3846;DHT22;1938;50.812;7.738;2022-08-19T02:42:37;16.70;1.00
3846;DHT22;1938;50.812;7.738;2022-08-19T02:45:03;16.60;1.00
3846;DHT22;1938;50.812;7.738;2022-08-19T02:47:29;16.60;1.00
3846;DHT22;1938;50.812;7.738;2022-08-19T02:49:55;16.70;1.00
3846;DHT22;1938;50.812;7.738;2022-08-19T02:52:20;16.60;1.00
3846;DHT22;1938;50.812;7.738;2022-08-19T02:54:49;16.60;1.00
3846;DHT22;1938;50.812;7.738;2022-08-19T02:57:16;16.50;1.00
3846;DHT22;1938;50.812;7.738;2022-08-19T02:59:42;16.50;1.00
3846;DHT22;1938;50.812;7.738;2022-08-19T03:02:08;16.40;99.90
3846;DHT22;1938;50.812;7.738;2022-08-19T03:04:33;16.50;99.90
3846;DHT22;1938;50.812;7.738;2022-08-19T03:06:59;16.40;1.00
3846;DHT22;1938;50.812;7.738;2022-08-19T03:09:24;16.40;1.00
3846;DHT22;1938;50.812;7.738;2022-08-19T03:11:50;16.40;1.00
3846;DHT22;1938;50.812;7.738;2022-08-19T03:14:16;16.30;96.60
3846;DHT22;1938;50.812;7.738;2022-08-19T03:16:48;16.20;99.90
3846;DHT22;1938;50.812;7.738;2022-08-19T03:19:17;16.20;99.90
3846;DHT22;1938;50.812;7.738;2022-08-19T03:21:43;16.20;99.90
3846;DHT22;1938;50.812;7.738;2022-08-19T03:24:13;16.10;99.90
3846;DHT22;1938;50.812;7.738;2022-08-19T03:26:45;16.20;99.90
3846;DHT22;1938;50.812;7.738;2022-08-19T03:29:11;16.10;99.90
3846;DHT22;1938;50.812;7.738;2022-08-19T03:31:38;16.20;99.90
3846;DHT22;1938;50.812;7.738;2022-08-19T03:34:05;16.20;99.90
3846;DHT22;1938;50.812;7.738;2022-08-19T03:36:30;16.20;97.50
3846;DHT22;1938;50.812;7.738;2022-08-19T03:38:58;16.00;15.50
3846;DHT22;1938;50.812;7.738;2022-08-19T03:41:27;15.90;99.90
3846;DHT22;1938;50.812;7.738;2022-08-19T03:43:54;15.70;1.00
3846;DHT22;1938;50.812;7.738;2022-08-19T03:46:22;15.50;6.70
3846;DHT22;1938;50.812;7.738;2022-08-19T03:48:50;15.50;12.60
3846;DHT22;1938;50.812;7.738;2022-08-19T03:51:27;15.50;9.40
3846;DHT22;1938;50.812;7.738;2022-08-19T03:53:55;15.60;21.80
3846;DHT22;1938;50.812;7.738;2022-08-19T03:56:21;15.50;32.00
3846;DHT22;1938;50.812;7.738;2022-08-19T03:58:47;15.40;86.60
3846;DHT22;1938;50.812;7.738;2022-08-19T04:01:17;15.30;99.90
3846;DHT22;1938;50.812;7.738;2022-08-19T04:03:44;15.30;99.90
3846;DHT22;1938;50.812;7.738;2022-08-19T04:06:20;15.40;99.90
3846;DHT22;1938;50.812;7.738;2022-08-19T04:08:48;15.40;99.90
3846;DHT22;1938;50.812;7.738;2022-08-19T04:11:18;15.40;99.90
3846;DHT22;1938;50.812;7.738;2022-08-19T04:13:49;15.40;99.90
3846;DHT22;1938;50.812;7.738;2022-08-19T04:16:20;15.40;99.90
3846;DHT22;1938;50.812;7.738;2022-08-19T04:18:48;15.40;99.90
3846;DHT22;1938;50.812;7.738;2022-08-19T04:21:31;15.50;99.90
3846;DHT22;1938;50.812;7.738;2022-08-19T04:23:57;15.50;92.40
3846;DHT22;1938;50.812;7.738;2022-08-19T04:26:30;15.50;48.50
3846;DHT22;1938;50.812;7.738;2022-08-19T04:28:58;15.50;67.90
3846;DHT22;1938;50.812;7.738;2022-08-19T04:31:27;15.50;84.70
3846;DHT22;1938;50.812;7.738;2022-08-19T04:33:55;15.60;92.40
3846;DHT22;1938;50.812;7.738;2022-08-19T04:36:26;15.60;66.10
3846;DHT22;1938;50.812;7.738;2022-08-19T04:38:55;15.60;48.60
3846;DHT22;1938;50.812;7.738;2022-08-19T04:41:21;15.60;44.20
3846;DHT22;1938;50.812;7.738;2022-08-19T04:44:05;15.60;53.30
3846;DHT22;1938;50.812;7.738;2022-08-19T04:46:32;15.70;58.40
3846;DHT22;1938;50.812;7.738;2022-08-19T04:48:59;15.70;51.60
3846;DHT22;1938;50.812;7.738;2022-08-19T04:51:25;15.70;22.70
3846;DHT22;1938;50.812;7.738;2022-08-19T04:53:51;15.70;1.00
3846;DHT22;1938;50.812;7.738;2022-08-19T04:56:19;15.80;1.00
3846;DHT22;1938;50.812;7.738;2022-08-19T04:58:46;15.80;1.20
3846;DHT22;1938;50.812;7.738;2022-08-19T05:01:21;15.90;1.00
3846;DHT22;1938;50.812;7.738;2022-08-19T05:03:48;16.00;1.00
3846;DHT22;1938;50.812;7.738;2022-08-19T05:06:15;16.00;1.00
3846;DHT22;1938;50.812;7.738;2022-08-19T05:08:43;16.10;1.00
3846;DHT22;1938;50.812;7.738;2022-08-19T05:11:11;16.20;99.90
3846;DHT22;1938;50.812;7.738;2022-08-19T05:13:37;16.40;99.90
3846;DHT22;1938;50.812;7.738;2022-08-19T05:16:03;16.60;50.20
3846;DHT22;1938;50.812;7.738;2022-08-19T05:18:29;16.60;1.00
3846;DHT22;1938;50.812;7.738;2022-08-19T05:21:16;16.90;1.00
3846;DHT22;1938;50.812;7.738;2022-08-19T05:24:00;17.10;99.90
3846;DHT22;1938;50.812;7.738;2022-08-19T05:26:27;17.40;1.00
3846;DHT22;1938;50.812;7.738;2022-08-19T05:28:53;17.70;99.90
3846;DHT22;1938;50.812;7.738;2022-08-19T05:31:21;17.90;99.90
3846;DHT22;1938;50.812;7.738;2022-08-19T05:33:47;18.20;99.90
3846;DHT22;1938;50.812;7.738;2022-08-19T05:36:12;18.60;99.90
3846;DHT22;1938;50.812;7.738;2022-08-19T05:38:39;19.00;1.00
3846;DHT22;1938;50.812;7.738;2022-08-19T05:41:14;19.30;99.90
3846;DHT22;1938;50.812;7.738;2022-08-19T05:43:41;19.80;55.50
3846;DHT22;1938;50.812;7.738;2022-08-19T05:46:07;20.90;1.00
3846;DHT22;1938;50.812;7.738;2022-08-19T05:48:34;22.40;99.90
3846;DHT22;1938;50.812;7.738;2022-08-19T05:51:05;23.80;1.00
3846;DHT22;1938;50.812;7.738;2022-08-19T05:53:32;24.60;1.00
3846;DHT22;1938;50.812;7.738;2022-08-19T05:56:04;25.30;99.90
3846;DHT22;1938;50.812;7.738;2022-08-19T05:58:29;25.50;99.90
3846;DHT22;1938;50.812;7.738;2022-08-19T06:00:55;25.90;99.90
3846;DHT22;1938;50.812;7.738;2022-08-19T06:03:20;25.70;99.90
3846;DHT22;1938;50.812;7.738;2022-08-19T06:05:47;25.30;99.90
3846;DHT22;1938;50.812;7.738;2022-08-19T06:08:12;24.70;99.90
3846;DHT22;1938;50.812;7.738;2022-08-19T06:10:39;24.20;99.90
3846;DHT22;1938;50.812;7.738;2022-08-19T06:13:04;23.70;99.90
3846;DHT22;1938;50.812;7.738;2022-08-19T06:15:31;23.30;99.90
3846;DHT22;1938;50.812;7.738;2022-08-19T06:17:56;22.70;1.00
3846;DHT22;1938;50.812;7.738;2022-08-19T06:20:22;22.20;1.00
3846;DHT22;1938;50.812;7.738;2022-08-19T06:22:48;21.60;1.00
3846;DHT22;1938;50.812;7.738;2022-08-19T06:25:15;21.30;12.20
3846;DHT22;1938;50.812;7.738;2022-08-19T06:27:43;21.20;38.40
3846;DHT22;1938;50.812;7.738;2022-08-19T06:30:09;21.60;78.20
3846;DHT22;1938;50.812;7.738;2022-08-19T06:32:35;22.40;38.80
3846;DHT22;1938;50.812;7.738;2022-08-19T06:35:01;24.00;1.00
3846;DHT22;1938;50.812;7.738;2022-08-19T06:37:27;24.80;99.90
3846;DHT22;1938;50.812;7.738;2022-08-19T06:39:53;25.20;99.90
3846;DHT22;1938;50.812;7.738;2022-08-19T06:42:18;25.60;99.90
3846;DHT22;1938;50.812;7.738;2022-08-19T06:44:47;25.60;99.90
3846;DHT22;1938;50.812;7.738;2022-08-19T06:47:17;25.60;99.90
3846;DHT22;1938;50.812;7.738;2022-08-19T06:49:42;25.50;99.90
3846;DHT22;1938;50.812;7.738;2022-08-19T06:52:09;25.60;99.90
3846;DHT22;1938;50.812;7.738;2022-08-19T06:54:37;25.50;99.90
3846;DHT22;1938;50.812;7.738;2022-08-19T06:57:05;25.60;99.90
3846;DHT22;1938;50.812;7.738;2022-08-19T06:59:31;25.40;99.90
3846;DHT22;1938;50.812;7.738;2022-08-19T07:02:00;25.80;99.90
3846;DHT22;1938;50.812;7.738;2022-08-19T07:04:29;26.50;99.90
3846;DHT22;1938;50.812;7.738;2022-08-19T07:07:13;26.90;99.90
3846;DHT22;1938;50.812;7.738;2022-08-19T07:09:42;27.30;99.90
3846;DHT22;1938;50.812;7.738;2022-08-19T07:12:09;28.00;99.90
3846;DHT22;1938;50.812;7.738;2022-08-19T07:14:37;28.60;99.90
3846;DHT22;1938;50.812;7.738;2022-08-19T07:17:06;29.30;99.90
3846;DHT22;1938;50.812;7.738;2022-08-19T07:19:33;29.50;99.90
3846;DHT22;1938;50.812;7.738;2022-08-19T07:22:02;30.00;99.10
3846;DHT22;1938;50.812;7.738;2022-08-19T07:24:28;30.60;93.40
3846;DHT22;1938;50.812;7.738;2022-08-19T07:26:57;31.00;83.50
3846;DHT22;1938;50.812;7.738;2022-08-19T07:29:26;31.50;72.90
3846;DHT22;1938;50.812;7.738;2022-08-19T07:31:52;32.40;61.40
3846;DHT22;1938;50.812;7.738;2022-08-19T07:34:22;33.20;53.00
3846;DHT22;1938;50.812;7.738;2022-08-19T07:36:49;34.00;46.20
3846;DHT22;1938;50.812;7.738;2022-08-19T07:39:19;34.70;39.80
3846;DHT22;1938;50.812;7.738;2022-08-19T07:41:46;35.20;31.60
3846;DHT22;1938;50.812;7.738;2022-08-19T07:44:13;35.50;26.60
3846;DHT22;1938;50.812;7.738;2022-08-19T07:46:42;36.10;22.80
3846;DHT22;1938;50.812;7.738;2022-08-19T07:49:10;36.70;18.50
3846;DHT22;1938;50.812;7.738;2022-08-19T07:51:43;37.10;14.70
3846;DHT22;1938;50.812;7.738;2022-08-19T07:54:09;37.60;11.40
3846;DHT22;1938;50.812;7.738;2022-08-19T07:56:34;38.00;8.50
3846;DHT22;1938;50.812;7.738;2022-08-19T07:59:00;38.70;5.10
3846;DHT22;1938;50.812;7.738;2022-08-19T08:01:27;39.10;2.00
3846;DHT22;1938;50.812;7.738;2022-08-19T08:03:54;39.90;1.00
3846;DHT22;1938;50.812;7.738;2022-08-19T08:06:39;40.30;1.00
3846;DHT22;1938;50.812;7.738;2022-08-19T08:09:27;40.20;1.00
3846;DHT22;1938;50.812;7.738;2022-08-19T08:11:57;40.70;1.00
3846;DHT22;1938;50.812;7.738;2022-08-19T08:14:27;40.80;1.00
3846;DHT22;1938;50.812;7.738;2022-08-19T08:16:54;41.10;1.00
3846;DHT22;1938;50.812;7.738;2022-08-19T08:19:21;41.40;1.00
3846;DHT22;1938;50.812;7.738;2022-08-19T08:21:49;41.90;1.00
3846;DHT22;1938;50.812;7.738;2022-08-19T08:24:16;42.20;1.00
3846;DHT22;1938;50.812;7.738;2022-08-19T08:26:43;42.30;1.00
3846;DHT22;1938;50.812;7.738;2022-08-19T08:29:13;41.90;1.00
3846;DHT22;1938;50.812;7.738;2022-08-19T08:31:40;41.70;1.00
3846;DHT22;1938;50.812;7.738;2022-08-19T08:34:06;42.10;1.00
3846;DHT22;1938;50.812;7.738;2022-08-19T08:36:31;41.80;1.00
3846;DHT22;1938;50.812;7.738;2022-08-19T08:39:00;41.80;1.00
3846;DHT22;1938;50.812;7.738;2022-08-19T08:44:20;42.00;1.00
3846;DHT22;1938;50.812;7.738;2022-08-19T08:46:49;42.60;1.00
3846;DHT22;1938;50.812;7.738;2022-08-19T08:51:47;43.40;1.00
3846;DHT22;1938;50.812;7.738;2022-08-19T08:54:18;42.70;1.00
3846;DHT22;1938;50.812;7.738;2022-08-19T08:56:45;41.90;1.00
3846;DHT22;1938;50.812;7.738;2022-08-19T08:59:28;41.00;1.00
3846;DHT22;1938;50.812;7.738;2022-08-19T09:01:58;40.50;1.00
3846;DHT22;1938;50.812;7.738;2022-08-19T09:04:24;40.50;1.00
3846;DHT22;1938;50.812;7.738;2022-08-19T09:06:58;40.80;1.00
3846;DHT22;1938;50.812;7.738;2022-08-19T09:09:34;40.80;1.00
3846;DHT22;1938;50.812;7.738;2022-08-19T09:14:57;40.80;1.00
3846;DHT22;1938;50.812;7.738;2022-08-19T09:17:27;40.30;1.00
3846;DHT22;1938;50.812;7.738;2022-08-19T09:22:37;40.80;1.00
3846;DHT22;1938;50.812;7.738;2022-08-19T09:25:04;40.70;1.00
3846;DHT22;1938;50.812;7.738;2022-08-19T09:27:30;40.10;1.00
3846;DHT22;1938;50.812;7.738;2022-08-19T09:29:58;39.60;1.00
3846;DHT22;1938;50.812;7.738;2022-08-19T09:32:24;38.70;1.00
3846;DHT22;1938;50.812;7.738;2022-08-19T09:34:51;37.70;1.00
3846;DHT22;1938;50.812;7.738;2022-08-19T09:37:20;37.30;1.00
3846;DHT22;1938;50.812;7.738;2022-08-19T09:39:47;37.10;1.00
3846;DHT22;1938;50.812;7.738;2022-08-19T09:42:13;36.60;1.00
3846;DHT22;1938;50.812;7.738;2022-08-19T09:44:41;35.50;1.00
3846;DHT22;1938;50.812;7.738;2022-08-19T09:47:08;34.10;1.00
3846;DHT22;1938;50.812;7.738;2022-08-19T09:49:34;33.20;1.00
3846;DHT22;1938;50.812;7.738;2022-08-19T09:52:00;32.80;1.00
3846;DHT22;1938;50.812;7.738;2022-08-19T09:54:26;32.60;1.00
3846;DHT22;1938;50.812;7.738;2022-08-19T09:56:53;32.50;1.00
3846;DHT22;1938;50.812;7.738;2022-08-19T09:59:20;32.30;1.00
3846;DHT22;1938;50.812;7.738;2022-08-19T10:01:45;31.90;1.00
3846;DHT22;1938;50.812;7.738;2022-08-19T10:04:11;31.70;1.00
3846;DHT22;1938;50.812;7.738;2022-08-19T10:06:39;31.50;1.00
3846;DHT22;1938;50.812;7.738;2022-08-19T10:09:06;31.40;1.00
3846;DHT22;1938;50.812;7.738;2022-08-19T10:11:33;31.30;1.00
3846;DHT22;1938;50.812;7.738;2022-08-19T10:14:01;31.00;1.00
3846;DHT22;1938;50.812;7.738;2022-08-19T10:16:27;30.80;1.00
3846;DHT22;1938;50.812;7.738;2022-08-19T10:18:53;30.70;1.00
3846;DHT22;1938;50.812;7.738;2022-08-19T10:21:28;30.70;1.00
3846;DHT22;1938;50.812;7.738;2022-08-19T10:23:57;30.80;1.00
3846;DHT22;1938;50.812;7.738;2022-08-19T10:26:30;31.00;1.00
3846;DHT22;1938;50.812;7.738;2022-08-19T10:28:57;31.20;1.00
3846;DHT22;1938;50.812;7.738;2022-08-19T10:31:33;30.90;1.00
3846;DHT22;1938;50.812;7.738;2022-08-19T10:33:59;31.00;1.00
3846;DHT22;1938;50.812;7.738;2022-08-19T10:36:34;30.70;1.00
3846;DHT22;1938;50.812;7.738;2022-08-19T10:39:05;30.90;1.00
3846;DHT22;1938;50.812;7.738;2022-08-19T10:41:33;30.90;1.00
3846;DHT22;1938;50.812;7.738;2022-08-19T10:44:02;30.50;1.00
3846;DHT22;1938;50.812;7.738;2022-08-19T10:46:28;29.90;1.00
3846;DHT22;1938;50.812;7.738;2022-08-19T10:48:58;29.80;1.00
3846;DHT22;1938;50.812;7.738;2022-08-19T10:51:25;29.60;1.00
3846;DHT22;1938;50.812;7.738;2022-08-19T10:54:09;29.50;1.00
3846;DHT22;1938;50.812;7.738;2022-08-19T10:56:35;29.70;1.00
3846;DHT22;1938;50.812;7.738;2022-08-19T10:59:26;29.90;1.00
3846;DHT22;1938;50.812;7.738;2022-08-19T11:01:53;30.00;1.00
3846;DHT22;1938;50.812;7.738;2022-08-19T11:04:20;29.90;1.00
3846;DHT22;1938;50.812;7.738;2022-08-19T11:06:46;30.00;1.00
3846;DHT22;1938;50.812;7.738;2022-08-19T11:09:18;29.90;1.00
3846;DHT22;1938;50.812;7.738;2022-08-19T11:11:44;30.00;1.00
3846;DHT22;1938;50.812;7.738;2022-08-19T11:14:11;30.20;1.00
3846;DHT22;1938;50.812;7.738;2022-08-19T11:16:39;30.40;1.00
3846;DHT22;1938;50.812;7.738;2022-08-19T11:19:07;30.40;1.00
3846;DHT22;1938;50.812;7.738;2022-08-19T11:21:39;30.30;1.00
3846;DHT22;1938;50.812;7.738;2022-08-19T11:24:11;30.10;1.00
3846;DHT22;1938;50.812;7.738;2022-08-19T11:26:39;30.00;1.00
3846;DHT22;1938;50.812;7.738;2022-08-19T11:29:06;30.00;1.00
3846;DHT22;1938;50.812;7.738;2022-08-19T11:31:34;29.80;1.00
3846;DHT22;1938;50.812;7.738;2022-08-19T11:34:04;29.90;1.00
3846;DHT22;1938;50.812;7.738;2022-08-19T11:36:31;29.70;1.00
3846;DHT22;1938;50.812;7.738;2022-08-19T11:38:58;29.90;1.00
3846;DHT22;1938;50.812;7.738;2022-08-19T11:41:24;29.90;1.00
3846;DHT22;1938;50.812;7.738;2022-08-19T11:43:51;29.80;1.00
3846;DHT22;1938;50.812;7.738;2022-08-19T11:46:18;29.80;1.00
3846;DHT22;1938;50.812;7.738;2022-08-19T11:48:44;30.10;1.00
3846;DHT22;1938;50.812;7.738;2022-08-19T11:51:15;30.30;1.00
3846;DHT22;1938;50.812;7.738;2022-08-19T11:53:41;30.10;1.00
3846;DHT22;1938;50.812;7.738;2022-08-19T11:56:07;30.30;1.00
3846;DHT22;1938;50.812;7.738;2022-08-19T11:58:33;30.20;1.00
3846;DHT22;1938;50.812;7.738;2022-08-19T12:00:59;30.40;1.00
3846;DHT22;1938;50.812;7.738;2022-08-19T12:03:25;30.40;1.00
3846;DHT22;1938;50.812;7.738;2022-08-19T12:05:51;30.50;1.00
3846;DHT22;1938;50.812;7.738;2022-08-19T12:08:17;30.60;1.00
3846;DHT22;1938;50.812;7.738;2022-08-19T12:10:44;30.70;1.00
3846;DHT22;1938;50.812;7.738;2022-08-19T12:13:10;30.60;1.00
3846;DHT22;1938;50.812;7.738;2022-08-19T12:15:38;30.30;1.00
3846;DHT22;1938;50.812;7.738;2022-08-19T12:18:06;30.10;1.00
3846;DHT22;1938;50.812;7.738;2022-08-19T12:20:36;30.00;1.00
3846;DHT22;1938;50.812;7.738;2022-08-19T12:23:03;29.80;1.00
3846;DHT22;1938;50.812;7.738;2022-08-19T12:25:29;29.60;1.00
3846;DHT22;1938;50.812;7.738;2022-08-19T12:27:54;29.30;1.00
3846;DHT22;1938;50.812;7.738;2022-08-19T12:30:20;29.30;1.00
3846;DHT22;1938;50.812;7.738;2022-08-19T12:32:45;29.40;1.00
3846;DHT22;1938;50.812;7.738;2022-08-19T12:35:11;29.50;1.00
3846;DHT22;1938;50.812;7.738;2022-08-19T12:37:39;29.60;1.00
3846;DHT22;1938;50.812;7.738;2022-08-19T12:40:10;29.50;1.00
3846;DHT22;1938;50.812;7.738;2022-08-19T12:42:37;29.50;1.00
3846;DHT22;1938;50.812;7.738;2022-08-19T12:45:07;29.60;1.00
3846;DHT22;1938;50.812;7.738;2022-08-19T12:47:33;29.80;1.00
3846;DHT22;1938;50.812;7.738;2022-08-19T12:49:58;30.00;1.00
3846;DHT22;1938;50.812;7.738;2022-08-19T12:52:25;30.10;1.00
3846;DHT22;1938;50.812;7.738;2022-08-19T12:54:54;30.20;1.00
3846;DHT22;1938;50.812;7.738;2022-08-19T12:57:20;30.30;1.00
3846;DHT22;1938;50.812;7.738;2022-08-19T12:59:45;30.40;1.00
3846;DHT22;1938;50.812;7.738;2022-08-19T13:02:11;30.30;1.00
3846;DHT22;1938;50.812;7.738;2022-08-19T13:04:38;30.20;1.00
3846;DHT22;1938;50.812;7.738;2022-08-19T13:07:07;29.90;1.00
3846;DHT22;1938;50.812;7.738;2022-08-19T13:09:33;29.70;1.00
3846;DHT22;1938;50.812;7.738;2022-08-19T13:11:59;29.40;1.00
3846;DHT22;1938;50.812;7.738;2022-08-19T13:14:27;29.00;1.00
3846;DHT22;1938;50.812;7.738;2022-08-19T13:16:54;28.90;1.00
3846;DHT22;1938;50.812;7.738;2022-08-19T13:19:19;28.90;1.00
3846;DHT22;1938;50.812;7.738;2022-08-19T13:21:50;28.80;1.00
3846;DHT22;1938;50.812;7.738;2022-08-19T13:24:16;28.40;1.00
3846;DHT22;1938;50.812;7.738;2022-08-19T13:26:41;28.30;1.00
3846;DHT22;1938;50.812;7.738;2022-08-19T13:29:07;28.20;1.00
3846;DHT22;1938;50.812;7.738;2022-08-19T13:31:51;28.30;1.00
3846;DHT22;1938;50.812;7.738;2022-08-19T13:34:35;28.40;1.00
3846;DHT22;1938;50.812;7.738;2022-08-19T13:37:03;28.50;1.00
3846;DHT22;1938;50.812;7.738;2022-08-19T13:39:30;28.70;1.00
3846;DHT22;1938;50.812;7.738;2022-08-19T13:41:57;28.90;1.00
3846;DHT22;1938;50.812;7.738;2022-08-19T13:44:25;28.90;1.00
3846;DHT22;1938;50.812;7.738;2022-08-19T13:46:50;29.00;1.00
3846;DHT22;1938;50.812;7.738;2022-08-19T13:49:19;29.00;1.00
3846;DHT22;1938;50.812;7.738;2022-08-19T13:51:45;29.10;1.00
3846;DHT22;1938;50.812;7.738;2022-08-19T13:54:12;29.30;1.00
3846;DHT22;1938;50.812;7.738;2022-08-19T13:56:45;29.30;1.00
3846;DHT22;1938;50.812;7.738;2022-08-19T13:59:11;29.30;1.00
3846;DHT22;1938;50.812;7.738;2022-08-19T14:01:37;29.30;1.00
3846;DHT22;1938;50.812;7.738;2022-08-19T14:04:03;29.40;1.00
3846;DHT22;1938;50.812;7.738;2022-08-19T14:06:29;29.50;1.00
3846;DHT22;1938;50.812;7.738;2022-08-19T14:08:55;29.60;1.00
3846;DHT22;1938;50.812;7.738;2022-08-19T14:11:20;29.40;1.00
3846;DHT22;1938;50.812;7.738;2022-08-19T14:13:49;29.40;1.00
3846;DHT22;1938;50.812;7.738;2022-08-19T14:16:15;29.40;1.00
3846;DHT22;1938;50.812;7.738;2022-08-19T14:18:42;29.40;1.00
3846;DHT22;1938;50.812;7.738;2022-08-19T14:21:08;29.60;1.00
3846;DHT22;1938;50.812;7.738;2022-08-19T14:23:38;29.60;1.00
3846;DHT22;1938;50.812;7.738;2022-08-19T14:26:13;29.60;1.00
3846;DHT22;1938;50.812;7.738;2022-08-19T14:28:39;29.70;1.00
3846;DHT22;1938;50.812;7.738;2022-08-19T14:31:10;29.70;1.00
3846;DHT22;1938;50.812;7.738;2022-08-19T14:33:37;29.60;1.00
3846;DHT22;1938;50.812;7.738;2022-08-19T14:36:03;29.40;1.00
3846;DHT22;1938;50.812;7.738;2022-08-19T14:38:29;29.30;1.00
3846;DHT22;1938;50.812;7.738;2022-08-19T14:41:06;29.30;1.00
3846;DHT22;1938;50.812;7.738;2022-08-19T14:43:33;29.30;1.00
3846;DHT22;1938;50.812;7.738;2022-08-19T14:46:00;29.20;1.00
3846;DHT22;1938;50.812;7.738;2022-08-19T14:48:25;29.20;1.00
3846;DHT22;1938;50.812;7.738;2022-08-19T14:50:52;29.20;1.00
3846;DHT22;1938;50.812;7.738;2022-08-19T14:53:18;29.20;1.00
3846;DHT22;1938;50.812;7.738;2022-08-19T14:55:45;29.10;1.00
3846;DHT22;1938;50.812;7.738;2022-08-19T14:58:12;28.80;1.00
3846;DHT22;1938;50.812;7.738;2022-08-19T15:00:38;28.40;1.00
3846;DHT22;1938;50.812;7.738;2022-08-19T15:03:05;28.20;1.00
3846;DHT22;1938;50.812;7.738;2022-08-19T15:05:30;28.20;1.00
3846;DHT22;1938;50.812;7.738;2022-08-19T15:07:56;28.30;1.00
3846;DHT22;1938;50.812;7.738;2022-08-19T15:10:23;28.40;1.00
3846;DHT22;1938;50.812;7.738;2022-08-19T15:12:50;28.40;1.00
3846;DHT22;1938;50.812;7.738;2022-08-19T15:15:16;28.60;1.00
3846;DHT22;1938;50.812;7.738;2022-08-19T15:17:47;28.70;1.00
3846;DHT22;1938;50.812;7.738;2022-08-19T15:20:17;28.70;1.00
3846;DHT22;1938;50.812;7.738;2022-08-19T15:22:44;28.70;1.00
3846;DHT22;1938;50.812;7.738;2022-08-19T15:25:12;28.60;1.00
3846;DHT22;1938;50.812;7.738;2022-08-19T15:27:39;28.60;1.00
3846;DHT22;1938;50.812;7.738;2022-08-19T15:30:05;28.50;1.00
3846;DHT22;1938;50.812;7.738;2022-08-19T15:32:31;28.40;1.00
3846;DHT22;1938;50.812;7.738;2022-08-19T15:34:57;28.40;1.00
3846;DHT22;1938;50.812;7.738;2022-08-19T15:37:23;28.40;1.00
3846;DHT22;1938;50.812;7.738;2022-08-19T15:39:49;28.40;1.00
3846;DHT22;1938;50.812;7.738;2022-08-19T15:42:15;28.40;1.00
3846;DHT22;1938;50.812;7.738;2022-08-19T15:44:41;28.30;1.00
3846;DHT22;1938;50.812;7.738;2022-08-19T15:47:06;28.20;1.00
3846;DHT22;1938;50.812;7.738;2022-08-19T15:49:32;28.20;1.00
3846;DHT22;1938;50.812;7.738;2022-08-19T15:51:58;28.10;1.00
3846;DHT22;1938;50.812;7.738;2022-08-19T15:54:26;28.10;1.00
3846;DHT22;1938;50.812;7.738;2022-08-19T15:56:51;28.00;1.00
3846;DHT22;1938;50.812;7.738;2022-08-19T15:59:36;27.80;1.00
3846;DHT22;1938;50.812;7.738;2022-08-19T16:02:26;27.80;1.00
3846;DHT22;1938;50.812;7.738;2022-08-19T16:05:13;27.80;1.00
3846;DHT22;1938;50.812;7.738;2022-08-19T16:07:58;27.80;1.00
3846;DHT22;1938;50.812;7.738;2022-08-19T16:10:24;27.70;1.00
3846;DHT22;1938;50.812;7.738;2022-08-19T16:12:50;27.60;1.00
3846;DHT22;1938;50.812;7.738;2022-08-19T16:15:16;27.40;1.00
3846;DHT22;1938;50.812;7.738;2022-08-19T16:17:42;27.30;1.00
3846;DHT22;1938;50.812;7.738;2022-08-19T16:20:09;27.10;1.00
3846;DHT22;1938;50.812;7.738;2022-08-19T16:22:37;26.90;1.00
3846;DHT22;1938;50.812;7.738;2022-08-19T16:25:03;26.90;1.00
3846;DHT22;1938;50.812;7.738;2022-08-19T16:27:29;26.80;1.00